Pitner Junction, Texas
Current Conditions -  °F | °C
As of 1:55 PM on Saturday 25 Oct 2014 (Local Time) from KRFI Reporting Station
Clear Clear  
Wind Chill: 82°   Ceiling: Unl
Heat Index: 82°   Visibility: 10mi
Dew Point: 61°   Wind: 5mph
Humidity: 49%   Direction: 270°W
Pressure: 30.13"   Gusts: NA
Location:  32.2818°N, 94.951°W
Report Text: KRFI 251855Z AUTO 27004KT 10SM CLR 28/16 A3013 RMK AO2 T02750160
Loading
Personal Weather Stations






























Interactive Weather Map
Tropical Storm Tracking
New forecast layout! Learn more

10-Day Weather Forecast

Advertisements
Track Severe Weather on mobile